sensor_id;sensor_type;location;lat;lon;timestamp;pressure;altitude;pressure_sealevel;temperature;humidity
44872;BME280;30602;51.060;17.226;2022-12-05T00:01:51;101955.15;;;2.44;100.00
44872;BME280;30602;51.060;17.226;2022-12-05T00:05:10;101950.51;;;2.42;100.00
44872;BME280;30602;51.060;17.226;2022-12-05T00:09:07;101936.70;;;2.30;100.00
44872;BME280;30602;51.060;17.226;2022-12-05T00:12:25;101936.95;;;2.30;100.00
44872;BME280;30602;51.060;17.226;2022-12-05T00:16:00;101923.20;;;2.23;100.00
44872;BME280;30602;51.060;17.226;2022-12-05T00:19:14;101935.21;;;2.27;100.00
44872;BME280;30602;51.060;17.226;2022-12-05T00:22:40;101930.19;;;2.30;100.00
44872;BME280;30602;51.060;17.226;2022-12-05T00:25:54;101929.90;;;2.26;100.00
44872;BME280;30602;51.060;17.226;2022-12-05T00:29:06;101931.61;;;2.28;100.00
44872;BME280;30602;51.060;17.226;2022-12-05T00:32:40;101918.73;;;2.18;100.00
44872;BME280;30602;51.060;17.226;2022-12-05T00:36:19;101932.24;;;2.30;100.00
44872;BME280;30602;51.060;17.226;2022-12-05T00:40:07;101937.08;;;2.31;100.00
44872;BME280;30602;51.060;17.226;2022-12-05T00:44:13;101925.63;;;2.23;100.00
44872;BME280;30602;51.060;17.226;2022-12-05T00:48:24;101941.67;;;2.36;100.00
44872;BME280;30602;51.060;17.226;2022-12-05T00:51:43;101921.23;;;2.35;100.00
44872;BME280;30602;51.060;17.226;2022-12-05T00:56:03;101947.01;;;2.38;100.00
44872;BME280;30602;51.060;17.226;2022-12-05T00:59:40;101938.37;;;2.44;100.00
44872;BME280;30602;51.060;17.226;2022-12-05T01:03:01;101925.15;;;2.29;100.00
44872;BME280;30602;51.060;17.226;2022-12-05T01:06:20;101940.70;;;2.36;100.00
44872;BME280;30602;51.060;17.226;2022-12-05T01:10:27;101946.48;;;2.31;100.00
44872;BME280;30602;51.060;17.226;2022-12-05T01:14:12;101953.81;;;2.36;100.00
44872;BME280;30602;51.060;17.226;2022-12-05T01:17:58;101950.98;;;2.41;100.00
44872;BME280;30602;51.060;17.226;2022-12-05T01:22:22;101946.38;;;2.41;100.00
44872;BME280;30602;51.060;17.226;2022-12-05T01:26:45;101947.16;;;2.44;100.00
44872;BME280;30602;51.060;17.226;2022-12-05T01:30:04;101936.92;;;2.38;100.00
44872;BME280;30602;51.060;17.226;2022-12-05T01:34:05;101923.26;;;2.32;100.00
44872;BME280;30602;51.060;17.226;2022-12-05T01:41:50;101925.41;;;2.50;100.00
44872;BME280;30602;51.060;17.226;2022-12-05T01:45:30;101927.57;;;2.49;100.00
44872;BME280;30602;51.060;17.226;2022-12-05T01:49:11;101921.88;;;2.39;100.00
44872;BME280;30602;51.060;17.226;2022-12-05T01:52:23;101913.10;;;2.31;100.00
44872;BME280;30602;51.060;17.226;2022-12-05T01:55:48;101922.67;;;2.33;100.00
44872;BME280;30602;51.060;17.226;2022-12-05T01:59:54;101905.42;;;2.20;100.00
44872;BME280;30602;51.060;17.226;2022-12-05T02:03:57;101921.50;;;2.23;100.00
44872;BME280;30602;51.060;17.226;2022-12-05T02:08:15;101924.41;;;2.26;100.00
44872;BME280;30602;51.060;17.226;2022-12-05T02:11:33;101928.98;;;2.27;100.00
44872;BME280;30602;51.060;17.226;2022-12-05T02:18:26;101919.27;;;2.24;100.00
44872;BME280;30602;51.060;17.226;2022-12-05T02:21:58;101913.59;;;2.18;100.00
44872;BME280;30602;51.060;17.226;2022-12-05T02:41:21;101904.73;;;2.23;100.00
44872;BME280;30602;51.060;17.226;2022-12-05T02:45:30;101906.05;;;2.15;99.99
44872;BME280;30602;51.060;17.226;2022-12-05T02:49:40;101905.36;;;2.21;100.00
44872;BME280;30602;51.060;17.226;2022-12-05T02:53:11;101900.87;;;2.12;99.98
44872;BME280;30602;51.060;17.226;2022-12-05T02:56:49;101899.79;;;2.13;99.99
44872;BME280;30602;51.060;17.226;2022-12-05T03:00:20;101901.39;;;2.17;99.65
44872;BME280;30602;51.060;17.226;2022-12-05T03:03:33;101902.27;;;2.12;99.46
44872;BME280;30602;51.060;17.226;2022-12-05T03:07:07;101901.28;;;2.13;99.69
44872;BME280;30602;51.060;17.226;2022-12-05T03:10:27;101902.16;;;2.12;99.54
44872;BME280;30602;51.060;17.226;2022-12-05T03:14:39;101896.67;;;2.10;99.38
44872;BME280;30602;51.060;17.226;2022-12-05T03:18:25;101889.62;;;2.12;99.21
44872;BME280;30602;51.060;17.226;2022-12-05T03:22:09;101884.99;;;2.14;98.98
44872;BME280;30602;51.060;17.226;2022-12-05T03:25:59;101886.66;;;2.04;99.00
44872;BME280;30602;51.060;17.226;2022-12-05T03:29:51;101883.84;;;2.04;99.08
44872;BME280;30602;51.060;17.226;2022-12-05T03:33:43;101883.94;;;2.08;99.06
44872;BME280;30602;51.060;17.226;2022-12-05T03:37:08;101880.71;;;2.04;98.98
44872;BME280;30602;51.060;17.226;2022-12-05T03:41:29;101875.43;;;2.03;99.02
44872;BME280;30602;51.060;17.226;2022-12-05T03:49:13;101880.67;;;1.95;99.21
44872;BME280;30602;51.060;17.226;2022-12-05T03:56:43;101863.13;;;1.84;99.36
44872;BME280;30602;51.060;17.226;2022-12-05T04:03:47;101873.41;;;1.85;99.05
44872;BME280;30602;51.060;17.226;2022-12-05T04:07:09;101875.12;;;1.86;99.31
44872;BME280;30602;51.060;17.226;2022-12-05T04:10:25;101868.37;;;1.88;99.20
44872;BME280;30602;51.060;17.226;2022-12-05T04:14:18;101864.81;;;1.87;99.20
44872;BME280;30602;51.060;17.226;2022-12-05T04:21:37;101860.73;;;1.89;99.25
44872;BME280;30602;51.060;17.226;2022-12-05T04:36:44;101867.98;;;1.88;99.21
44872;BME280;30602;51.060;17.226;2022-12-05T04:40:28;101855.48;;;1.78;99.01
44872;BME280;30602;51.060;17.226;2022-12-05T04:44:14;101863.76;;;1.86;99.15
44872;BME280;30602;51.060;17.226;2022-12-05T04:48:21;101860.67;;;1.84;99.18
44872;BME280;30602;51.060;17.226;2022-12-05T04:52:28;101864.84;;;1.85;98.97
44872;BME280;30602;51.060;17.226;2022-12-05T04:56:28;101858.09;;;1.83;98.93
44872;BME280;30602;51.060;17.226;2022-12-05T04:59:45;101866.34;;;1.90;99.18
44872;BME280;30602;51.060;17.226;2022-12-05T05:03:29;101869.11;;;1.95;98.50
44872;BME280;30602;51.060;17.226;2022-12-05T05:07:11;101870.06;;;1.96;98.50
44872;BME280;30602;51.060;17.226;2022-12-05T05:15:04;101873.20;;;1.99;98.19
44872;BME280;30602;51.060;17.226;2022-12-05T05:19:09;101871.70;;;2.05;97.89
44872;BME280;30602;51.060;17.226;2022-12-05T05:23:28;101869.72;;;2.06;97.65
44872;BME280;30602;51.060;17.226;2022-12-05T05:26:56;101882.54;;;2.04;97.58
44872;BME280;30602;51.060;17.226;2022-12-05T05:30:41;101881.19;;;2.00;97.80
44872;BME280;30602;51.060;17.226;2022-12-05T05:34:45;101885.55;;;2.04;97.70
44872;BME280;30602;51.060;17.226;2022-12-05T05:38:36;101862.91;;;1.76;97.82
44872;BME280;30602;51.060;17.226;2022-12-05T05:42:16;101900.52;;;1.96;98.08
44872;BME280;30602;51.060;17.226;2022-12-05T05:46:23;101900.19;;;2.00;98.08
44872;BME280;30602;51.060;17.226;2022-12-05T05:49:36;101895.34;;;2.12;98.29
44872;BME280;30602;51.060;17.226;2022-12-05T05:53:42;101895.57;;;2.22;97.48
44872;BME280;30602;51.060;17.226;2022-12-05T05:56:54;101902.73;;;2.16;97.26
44872;BME280;30602;51.060;17.226;2022-12-05T06:00:28;101903.45;;;2.17;97.52
44872;BME280;30602;51.060;17.226;2022-12-05T06:04:15;101902.99;;;2.14;97.49
44872;BME280;30602;51.060;17.226;2022-12-05T06:07:31;101900.48;;;2.17;97.33
44872;BME280;30602;51.060;17.226;2022-12-05T06:11:03;101904.32;;;2.15;97.44
44872;BME280;30602;51.060;17.226;2022-12-05T06:14:35;101907.66;;;2.12;97.60
44872;BME280;30602;51.060;17.226;2022-12-05T06:18:02;101905.10;;;2.13;97.68
44872;BME280;30602;51.060;17.226;2022-12-05T06:21:29;101892.86;;;2.12;97.34
44872;BME280;30602;51.060;17.226;2022-12-05T06:25:13;101876.14;;;2.01;97.56
44872;BME280;30602;51.060;17.226;2022-12-05T06:29:34;101906.47;;;2.16;97.45
44872;BME280;30602;51.060;17.226;2022-12-05T06:33:19;101915.03;;;2.14;98.07
44872;BME280;30602;51.060;17.226;2022-12-05T06:36:37;101898.88;;;2.14;98.35
44872;BME280;30602;51.060;17.226;2022-12-05T06:40:20;101900.16;;;2.18;98.27
44872;BME280;30602;51.060;17.226;2022-12-05T06:43:34;101885.05;;;2.17;97.90
44872;BME280;30602;51.060;17.226;2022-12-05T06:46:49;101896.69;;;2.28;97.76
44872;BME280;30602;51.060;17.226;2022-12-05T06:50:22;101900.27;;;2.25;97.47
44872;BME280;30602;51.060;17.226;2022-12-05T06:53:53;101899.87;;;2.28;97.62
44872;BME280;30602;51.060;17.226;2022-12-05T07:01:49;101898.13;;;2.30;97.28
44872;BME280;30602;51.060;17.226;2022-12-05T07:05:22;101896.03;;;2.28;97.27
44872;BME280;30602;51.060;17.226;2022-12-05T07:08:33;101888.47;;;2.28;97.09
44872;BME280;30602;51.060;17.226;2022-12-05T07:12:05;101893.37;;;2.28;97.14
44872;BME280;30602;51.060;17.226;2022-12-05T07:16:01;101885.82;;;2.31;97.17
44872;BME280;30602;51.060;17.226;2022-12-05T07:19:30;101869.15;;;2.23;96.94
44872;BME280;30602;51.060;17.226;2022-12-05T07:23:00;101881.16;;;2.26;97.12
44872;BME280;30602;51.060;17.226;2022-12-05T07:26:44;101889.14;;;2.29;97.14
44872;BME280;30602;51.060;17.226;2022-12-05T07:30:25;101875.51;;;2.29;96.79
44872;BME280;30602;51.060;17.226;2022-12-05T07:33:58;101897.07;;;2.46;96.57
44872;BME280;30602;51.060;17.226;2022-12-05T07:37:41;101894.95;;;2.47;96.41
44872;BME280;30602;51.060;17.226;2022-12-05T07:41:35;101900.00;;;2.47;96.15
44872;BME280;30602;51.060;17.226;2022-12-05T07:44:49;101900.72;;;2.48;95.80
44872;BME280;30602;51.060;17.226;2022-12-05T07:48:26;101901.09;;;2.44;96.28
44872;BME280;30602;51.060;17.226;2022-12-05T07:51:40;101908.33;;;2.45;96.34
44872;BME280;30602;51.060;17.226;2022-12-05T07:54:52;101907.13;;;2.37;96.65
44872;BME280;30602;51.060;17.226;2022-12-05T07:58:30;101917.13;;;2.41;96.79
44872;BME280;30602;51.060;17.226;2022-12-05T08:02:01;101914.48;;;2.44;97.01
44872;BME280;30602;51.060;17.226;2022-12-05T08:05:47;101899.23;;;2.37;96.75
44872;BME280;30602;51.060;17.226;2022-12-05T08:09:31;101913.46;;;2.51;96.74
44872;BME280;30602;51.060;17.226;2022-12-05T08:12:52;101914.36;;;2.52;96.58
44872;BME280;30602;51.060;17.226;2022-12-05T08:16:44;101917.01;;;2.56;96.79
44872;BME280;30602;51.060;17.226;2022-12-05T08:20:14;101918.93;;;2.63;96.71
44872;BME280;30602;51.060;17.226;2022-12-05T08:24:10;101919.23;;;2.71;96.60
44872;BME280;30602;51.060;17.226;2022-12-05T08:27:52;101923.38;;;2.75;96.33
44872;BME280;30602;51.060;17.226;2022-12-05T08:32:09;101928.98;;;2.73;96.17
44872;BME280;30602;51.060;17.226;2022-12-05T08:35:23;101931.68;;;2.72;96.14
44872;BME280;30602;51.060;17.226;2022-12-05T08:39:09;101933.20;;;2.76;96.20
44872;BME280;30602;51.060;17.226;2022-12-05T08:43:25;101940.45;;;2.77;96.14
44872;BME280;30602;51.060;17.226;2022-12-05T08:46:40;101937.98;;;2.77;95.67
44872;BME280;30602;51.060;17.226;2022-12-05T08:50:02;101938.16;;;2.74;95.82
44872;BME280;30602;51.060;17.226;2022-12-05T08:56:54;101942.90;;;2.79;96.15
44872;BME280;30602;51.060;17.226;2022-12-05T09:00:22;101944.31;;;2.82;95.97
44872;BME280;30602;51.060;17.226;2022-12-05T09:03:49;101936.11;;;2.83;95.78
44872;BME280;30602;51.060;17.226;2022-12-05T09:07:22;101936.21;;;2.90;95.69
44872;BME280;30602;51.060;17.226;2022-12-05T09:13:07;101932.95;;;3.02;95.88
44872;BME280;30602;51.060;17.226;2022-12-05T09:16:32;101922.86;;;3.08;95.12
44872;BME280;30602;51.060;17.226;2022-12-05T09:20:30;101922.91;;;3.01;94.97
44872;BME280;30602;51.060;17.226;2022-12-05T09:24:10;101914.49;;;3.00;95.37
44872;BME280;30602;51.060;17.226;2022-12-05T09:27:50;101915.41;;;3.00;95.36
44872;BME280;30602;51.060;17.226;2022-12-05T09:32:09;101917.42;;;2.98;95.79
44872;BME280;30602;51.060;17.226;2022-12-05T09:36:02;101918.90;;;3.02;95.96
44872;BME280;30602;51.060;17.226;2022-12-05T09:39:29;101915.38;;;2.95;95.77
44872;BME280;30602;51.060;17.226;2022-12-05T09:43:06;101919.34;;;2.96;96.27
44872;BME280;30602;51.060;17.226;2022-12-05T09:46:49;101917.76;;;3.00;96.24
44872;BME280;30602;51.060;17.226;2022-12-05T09:50:41;101913.05;;;3.08;95.87
44872;BME280;30602;51.060;17.226;2022-12-05T09:54:22;101910.38;;;3.10;95.76
44872;BME280;30602;51.060;17.226;2022-12-05T09:58:52;101903.82;;;3.28;95.59
44872;BME280;30602;51.060;17.226;2022-12-05T10:06:31;101895.00;;;3.31;94.91
44872;BME280;30602;51.060;17.226;2022-12-05T10:22:43;101889.35;;;3.25;94.73
44872;BME280;30602;51.060;17.226;2022-12-05T10:27:29;101886.67;;;3.35;94.96
44872;BME280;30602;51.060;17.226;2022-12-05T10:31:08;101884.10;;;3.39;94.21
44872;BME280;30602;51.060;17.226;2022-12-05T10:34:37;101883.29;;;3.39;93.71
44872;BME280;30602;51.060;17.226;2022-12-05T10:38:15;101878.71;;;3.37;93.77
44872;BME280;30602;51.060;17.226;2022-12-05T10:41:57;101878.52;;;3.39;94.07
44872;BME280;30602;51.060;17.226;2022-12-05T10:45:47;101875.35;;;3.51;94.07
44872;BME280;30602;51.060;17.226;2022-12-05T10:49:26;101870.45;;;3.58;94.09
44872;BME280;30602;51.060;17.226;2022-12-05T10:52:37;101868.62;;;3.60;93.84
44872;BME280;30602;51.060;17.226;2022-12-05T10:55:51;101869.66;;;3.60;93.63
44872;BME280;30602;51.060;17.226;2022-12-05T10:59:47;101867.29;;;3.62;93.17
44872;BME280;30602;51.060;17.226;2022-12-05T11:03:36;101878.57;;;3.68;92.69
44872;BME280;30602;51.060;17.226;2022-12-05T11:11:40;101873.09;;;3.70;92.58
44872;BME280;30602;51.060;17.226;2022-12-05T11:31:31;101863.58;;;3.78;92.70
44872;BME280;30602;51.060;17.226;2022-12-05T11:34:52;101861.48;;;3.83;92.04
44872;BME280;30602;51.060;17.226;2022-12-05T11:38:29;101862.09;;;3.82;92.09
44872;BME280;30602;51.060;17.226;2022-12-05T11:41:54;101856.89;;;3.85;92.10
44872;BME280;30602;51.060;17.226;2022-12-05T11:45:15;101856.23;;;3.80;92.64
44872;BME280;30602;51.060;17.226;2022-12-05T12:00:32;101848.45;;;3.82;92.20
44872;BME280;30602;51.060;17.226;2022-12-05T12:11:30;101847.07;;;3.80;92.40
44872;BME280;30602;51.060;17.226;2022-12-05T12:39:14;101836.85;;;3.99;92.71
44872;BME280;30602;51.060;17.226;2022-12-05T12:42:39;101837.16;;;3.96;92.89
44872;BME280;30602;51.060;17.226;2022-12-05T12:50:25;101837.50;;;3.97;92.76
44872;BME280;30602;51.060;17.226;2022-12-05T13:10:44;101834.82;;;4.12;93.14
44872;BME280;30602;51.060;17.226;2022-12-05T13:15:32;101838.67;;;4.18;93.21
44872;BME280;30602;51.060;17.226;2022-12-05T13:23:13;101846.30;;;4.14;93.24
44872;BME280;30602;51.060;17.226;2022-12-05T13:26:32;101846.21;;;4.05;93.51
44872;BME280;30602;51.060;17.226;2022-12-05T13:30:18;101845.72;;;4.03;93.83
44872;BME280;30602;51.060;17.226;2022-12-05T13:33:34;101847.86;;;4.06;93.65
44872;BME280;30602;51.060;17.226;2022-12-05T13:37:30;101847.43;;;4.07;93.80
44872;BME280;30602;51.060;17.226;2022-12-05T13:40:53;101848.30;;;4.06;94.05
44872;BME280;30602;51.060;17.226;2022-12-05T13:44:48;101836.88;;;3.89;94.28
44872;BME280;30602;51.060;17.226;2022-12-05T13:48:13;101851.43;;;3.99;94.79
44872;BME280;30602;51.060;17.226;2022-12-05T13:52:30;101824.18;;;3.87;94.61
44872;BME280;30602;51.060;17.226;2022-12-05T14:03:55;101841.23;;;4.09;93.93
44872;BME280;30602;51.060;17.226;2022-12-05T14:11:15;101840.01;;;4.00;94.12
44872;BME280;30602;51.060;17.226;2022-12-05T14:15:37;101849.32;;;4.01;94.36
44872;BME280;30602;51.060;17.226;2022-12-05T14:27:51;101837.10;;;4.05;94.56
44872;BME280;30602;51.060;17.226;2022-12-05T14:35:48;101835.76;;;4.09;94.62
44872;BME280;30602;51.060;17.226;2022-12-05T14:46:23;101833.31;;;4.09;94.43
44872;BME280;30602;51.060;17.226;2022-12-05T14:50:32;101816.86;;;3.91;94.63
44872;BME280;30602;51.060;17.226;2022-12-05T14:53:50;101841.02;;;4.07;94.76
44872;BME280;30602;51.060;17.226;2022-12-05T14:58:20;101838.01;;;3.98;95.43
44872;BME280;30602;51.060;17.226;2022-12-05T15:02:21;101843.12;;;3.88;96.21
44872;BME280;30602;51.060;17.226;2022-12-05T15:10:17;101832.65;;;4.00;95.90
44872;BME280;30602;51.060;17.226;2022-12-05T15:13:34;101830.05;;;3.92;95.99
44872;BME280;30602;51.060;17.226;2022-12-05T15:24:38;101843.50;;;4.17;95.67
44872;BME280;30602;51.060;17.226;2022-12-05T15:28:05;101845.20;;;4.19;95.64
44872;BME280;30602;51.060;17.226;2022-12-05T15:35:46;101825.37;;;4.11;95.68
44872;BME280;30602;51.060;17.226;2022-12-05T15:39:16;101834.54;;;4.12;96.36
44872;BME280;30602;51.060;17.226;2022-12-05T15:42:44;101832.54;;;4.12;96.28
44872;BME280;30602;51.060;17.226;2022-12-05T15:46:18;101825.37;;;4.14;96.34
44872;BME280;30602;51.060;17.226;2022-12-05T15:49:57;101835.74;;;4.14;96.46
44872;BME280;30602;51.060;17.226;2022-12-05T15:53:42;101832.49;;;4.16;96.37
44872;BME280;30602;51.060;17.226;2022-12-05T16:00:28;101835.05;;;4.08;97.20
44872;BME280;30602;51.060;17.226;2022-12-05T16:03:58;101838.05;;;4.11;97.33
44872;BME280;30602;51.060;17.226;2022-12-05T16:07:42;101840.67;;;4.16;97.74
44872;BME280;30602;51.060;17.226;2022-12-05T16:11:31;101838.36;;;4.23;97.42
44872;BME280;30602;51.060;17.226;2022-12-05T16:14:52;101805.51;;;4.07;97.04
44872;BME280;30602;51.060;17.226;2022-12-05T16:18:32;101838.69;;;4.21;96.89
44872;BME280;30602;51.060;17.226;2022-12-05T16:33:38;101844.70;;;4.11;98.26
44872;BME280;30602;51.060;17.226;2022-12-05T16:37:27;101852.09;;;4.06;98.42
44872;BME280;30602;51.060;17.226;2022-12-05T16:40:55;101857.02;;;4.06;98.68
44872;BME280;30602;51.060;17.226;2022-12-05T16:53:25;101859.56;;;4.17;98.89
44872;BME280;30602;51.060;17.226;2022-12-05T16:57:07;101861.09;;;4.29;98.45
44872;BME280;30602;51.060;17.226;2022-12-05T17:00:48;101839.13;;;4.19;98.17
44872;BME280;30602;51.060;17.226;2022-12-05T17:04:20;101857.05;;;4.32;98.20
44872;BME280;30602;51.060;17.226;2022-12-05T17:09:02;101860.16;;;4.34;98.23
44872;BME280;30602;51.060;17.226;2022-12-05T17:12:24;101859.52;;;4.18;99.12
44872;BME280;30602;51.060;17.226;2022-12-05T17:15:58;101859.43;;;4.20;99.16
44872;BME280;30602;51.060;17.226;2022-12-05T17:19:30;101841.24;;;4.11;99.16
44872;BME280;30602;51.060;17.226;2022-12-05T17:22:51;101858.66;;;4.18;99.39
44872;BME280;30602;51.060;17.226;2022-12-05T17:26:25;101862.08;;;4.20;99.43
44872;BME280;30602;51.060;17.226;2022-12-05T17:30:02;101845.27;;;4.11;99.42
44872;BME280;30602;51.060;17.226;2022-12-05T17:33:18;101858.86;;;4.14;99.58
44872;BME280;30602;51.060;17.226;2022-12-05T17:36:36;101861.87;;;4.15;99.98
44872;BME280;30602;51.060;17.226;2022-12-05T17:40:15;101862.38;;;4.23;100.00
44872;BME280;30602;51.060;17.226;2022-12-05T17:43:32;101864.54;;;4.35;100.00
44872;BME280;30602;51.060;17.226;2022-12-05T17:51:09;101865.02;;;4.24;99.98
44872;BME280;30602;51.060;17.226;2022-12-05T17:55:33;101863.43;;;4.28;99.98
44872;BME280;30602;51.060;17.226;2022-12-05T17:59:18;101795.81;;;3.81;99.92
44872;BME280;30602;51.060;17.226;2022-12-05T18:04:14;101857.60;;;4.27;100.00
44872;BME280;30602;51.060;17.226;2022-12-05T18:07:30;101853.17;;;4.22;100.00
44872;BME280;30602;51.060;17.226;2022-12-05T18:11:00;101835.37;;;4.11;100.00
44872;BME280;30602;51.060;17.226;2022-12-05T18:14:36;101848.33;;;4.22;100.00
44872;BME280;30602;51.060;17.226;2022-12-05T18:18:26;101854.01;;;4.23;100.00
44872;BME280;30602;51.060;17.226;2022-12-05T18:21:45;101830.05;;;4.11;100.00
44872;BME280;30602;51.060;17.226;2022-12-05T18:25:29;101857.33;;;4.37;100.00
44872;BME280;30602;51.060;17.226;2022-12-05T18:28:55;101857.40;;;4.49;99.73
44872;BME280;30602;51.060;17.226;2022-12-05T18:32:35;101847.95;;;4.48;99.65
44872;BME280;30602;51.060;17.226;2022-12-05T18:36:41;101857.95;;;4.47;99.56
44872;BME280;30602;51.060;17.226;2022-12-05T18:40:11;101859.62;;;4.49;99.40
44872;BME280;30602;51.060;17.226;2022-12-05T18:43:26;101857.87;;;4.50;99.43
44872;BME280;30602;51.060;17.226;2022-12-05T18:46:42;101855.73;;;4.46;99.52
44872;BME280;30602;51.060;17.226;2022-12-05T18:50:17;101852.66;;;4.37;99.82
44872;BME280;30602;51.060;17.226;2022-12-05T18:53:35;101862.84;;;4.41;99.87
44872;BME280;30602;51.060;17.226;2022-12-05T18:57:17;101857.94;;;4.35;99.99
44872;BME280;30602;51.060;17.226;2022-12-05T19:01:11;101852.22;;;4.33;100.00
44872;BME280;30602;51.060;17.226;2022-12-05T19:04:51;101852.32;;;4.31;99.83
44872;BME280;30602;51.060;17.226;2022-12-05T19:08:42;101847.10;;;4.32;99.97
44872;BME280;30602;51.060;17.226;2022-12-05T19:12:20;101842.81;;;4.39;99.69
44872;BME280;30602;51.060;17.226;2022-12-05T19:15:51;101845.00;;;4.50;99.34
44872;BME280;30602;51.060;17.226;2022-12-05T19:19:15;101840.05;;;4.35;99.59
44872;BME280;30602;51.060;17.226;2022-12-05T19:23:17;101843.00;;;4.36;99.69
44872;BME280;30602;51.060;17.226;2022-12-05T19:26:30;101849.84;;;4.45;99.53
44872;BME280;30602;51.060;17.226;2022-12-05T19:29:50;101850.38;;;4.36;99.75
44872;BME280;30602;51.060;17.226;2022-12-05T19:33:37;101852.97;;;4.37;99.97
44872;BME280;30602;51.060;17.226;2022-12-05T19:36:51;101858.63;;;4.35;100.00
44872;BME280;30602;51.060;17.226;2022-12-05T19:40:33;101851.48;;;4.19;100.00
44872;BME280;30602;51.060;17.226;2022-12-05T19:43:51;101862.48;;;4.20;100.00
44872;BME280;30602;51.060;17.226;2022-12-05T19:47:34;101859.91;;;4.20;100.00
44872;BME280;30602;51.060;17.226;2022-12-05T19:50:55;101858.45;;;4.22;100.00
44872;BME280;30602;51.060;17.226;2022-12-05T19:58:07;101847.62;;;4.38;100.00
44872;BME280;30602;51.060;17.226;2022-12-05T20:01:49;101851.80;;;4.21;100.00
44872;BME280;30602;51.060;17.226;2022-12-05T20:05:37;101852.55;;;4.27;100.00
44872;BME280;30602;51.060;17.226;2022-12-05T20:09:26;101844.22;;;4.14;100.00
44872;BME280;30602;51.060;17.226;2022-12-05T20:12:40;101847.39;;;4.09;100.00
44872;BME280;30602;51.060;17.226;2022-12-05T20:16:16;101847.36;;;4.03;100.00
44872;BME280;30602;51.060;17.226;2022-12-05T20:20:03;101847.21;;;4.01;100.00
44872;BME280;30602;51.060;17.226;2022-12-05T20:23:18;101856.62;;;3.99;100.00
44872;BME280;30602;51.060;17.226;2022-12-05T20:27:27;101854.23;;;3.95;100.00
44872;BME280;30602;51.060;17.226;2022-12-05T20:31:22;101845.72;;;3.99;100.00
44872;BME280;30602;51.060;17.226;2022-12-05T20:34:45;101843.74;;;3.95;100.00
44872;BME280;30602;51.060;17.226;2022-12-05T20:38:26;101833.92;;;3.92;100.00
44872;BME280;30602;51.060;17.226;2022-12-05T20:41:40;101842.63;;;4.00;100.00
44872;BME280;30602;51.060;17.226;2022-12-05T20:44:57;101836.31;;;3.92;100.00
44872;BME280;30602;51.060;17.226;2022-12-05T20:48:12;101848.51;;;3.97;100.00
44872;BME280;30602;51.060;17.226;2022-12-05T20:51:47;101851.60;;;4.01;100.00
44872;BME280;30602;51.060;17.226;2022-12-05T20:55:47;101854.54;;;3.96;100.00
44872;BME280;30602;51.060;17.226;2022-12-05T21:03:53;101839.80;;;3.89;100.00
44872;BME280;30602;51.060;17.226;2022-12-05T21:07:04;101852.15;;;3.97;100.00
44872;BME280;30602;51.060;17.226;2022-12-05T21:10:32;101845.09;;;3.91;100.00
44872;BME280;30602;51.060;17.226;2022-12-05T21:13:46;101840.93;;;3.99;100.00
44872;BME280;30602;51.060;17.226;2022-12-05T21:17:32;101822.45;;;3.96;100.00
44872;BME280;30602;51.060;17.226;2022-12-05T21:21:37;101841.95;;;4.03;100.00
44872;BME280;30602;51.060;17.226;2022-12-05T21:24:50;101831.47;;;4.09;100.00
44872;BME280;30602;51.060;17.226;2022-12-05T21:28:17;101830.19;;;4.13;100.00
44872;BME280;30602;51.060;17.226;2022-12-05T21:32:13;101827.22;;;4.18;100.00
44872;BME280;30602;51.060;17.226;2022-12-05T21:35:35;101814.81;;;4.18;100.00
44872;BME280;30602;51.060;17.226;2022-12-05T21:38:49;101792.18;;;4.00;100.00
44872;BME280;30602;51.060;17.226;2022-12-05T21:42:34;101824.96;;;4.22;100.00
44872;BME280;30602;51.060;17.226;2022-12-05T21:46:42;101823.62;;;4.20;100.00
44872;BME280;30602;51.060;17.226;2022-12-05T21:49:54;101823.29;;;4.21;100.00
44872;BME280;30602;51.060;17.226;2022-12-05T21:53:34;101820.10;;;4.17;100.00
44872;BME280;30602;51.060;17.226;2022-12-05T21:57:09;101818.05;;;4.17;100.00
44872;BME280;30602;51.060;17.226;2022-12-05T22:00:19;101816.25;;;4.19;100.00
44872;BME280;30602;51.060;17.226;2022-12-05T22:03:55;101819.26;;;4.19;100.00
44872;BME280;30602;51.060;17.226;2022-12-05T22:07:16;101819.24;;;4.21;100.00
44872;BME280;30602;51.060;17.226;2022-12-05T22:14:40;101807.55;;;4.32;100.00
44872;BME280;30602;51.060;17.226;2022-12-05T22:18:11;101801.54;;;4.25;100.00
44872;BME280;30602;51.060;17.226;2022-12-05T22:22:03;101795.38;;;4.18;100.00
44872;BME280;30602;51.060;17.226;2022-12-05T22:25:39;101797.57;;;4.16;100.00
44872;BME280;30602;51.060;17.226;2022-12-05T22:29:40;101801.66;;;4.24;100.00
44872;BME280;30602;51.060;17.226;2022-12-05T22:33:00;101803.77;;;4.22;100.00
44872;BME280;30602;51.060;17.226;2022-12-05T22:36:10;101798.95;;;4.22;100.00
44872;BME280;30602;51.060;17.226;2022-12-05T22:40:27;101799.21;;;4.22;100.00
44872;BME280;30602;51.060;17.226;2022-12-05T22:43:58;101773.91;;;4.11;99.99
44872;BME280;30602;51.060;17.226;2022-12-05T22:47:07;101793.16;;;4.24;99.98
44872;BME280;30602;51.060;17.226;2022-12-05T22:50:23;101783.34;;;4.21;100.00
44872;BME280;30602;51.060;17.226;2022-12-05T22:54:26;101781.34;;;4.20;100.00
44872;BME280;30602;51.060;17.226;2022-12-05T22:57:58;101778.37;;;4.30;100.00
44872;BME280;30602;51.060;17.226;2022-12-05T23:01:42;101777.18;;;4.41;100.00
44872;BME280;30602;51.060;17.226;2022-12-05T23:05:13;101770.25;;;4.41;99.71
44872;BME280;30602;51.060;17.226;2022-12-05T23:08:33;101768.73;;;4.38;99.45
44872;BME280;30602;51.060;17.226;2022-12-05T23:11:55;101762.37;;;4.32;99.60
44872;BME280;30602;51.060;17.226;2022-12-05T23:15:09;101758.40;;;4.33;99.61